createdAt,value
2023-01-05T00:00:30.308Z,7.5
2023-01-05T00:05:35.348Z,7.9
2023-01-05T00:10:37.845Z,8.1
2023-01-05T00:15:40.022Z,7.6
2023-01-05T00:20:42.168Z,7.2
2023-01-05T00:25:44.347Z,7.7
2023-01-05T00:30:46.738Z,7.3
2023-01-05T00:35:48.935Z,7.9
2023-01-05T00:40:51.073Z,8.3
2023-01-05T00:45:53.364Z,8.2
2023-01-05T00:50:55.619Z,7.6
2023-01-05T00:55:57.795Z,8.4
2023-01-05T01:01:00.357Z,8.3
2023-01-05T01:06:02.912Z,8.6
2023-01-05T01:11:05.157Z,8.7
2023-01-05T01:16:07.417Z,8.9
2023-01-05T01:21:09.872Z,8.8
2023-01-05T01:26:12.073Z,9.2
2023-01-05T01:31:14.355Z,9.9
2023-01-05T01:36:16.774Z,9.1
2023-01-05T01:41:18.871Z,9.4
2023-01-05T01:46:21.224Z,9.3
2023-01-05T01:51:23.337Z,9.6
2023-01-05T01:56:25.580Z,9.8
2023-01-05T02:01:27.973Z,10
2023-01-05T02:06:30.435Z,10.2
2023-01-05T02:11:32.540Z,10
2023-01-05T02:16:34.678Z,10.7
2023-01-05T02:21:36.929Z,10.2
2023-01-05T02:26:39.356Z,10.2
2023-01-05T02:31:42.439Z,10.5
2023-01-05T02:36:43.974Z,9.6
2023-01-05T02:41:48.894Z,9.8
2023-01-05T02:46:51.209Z,10.2
2023-01-05T02:51:53.408Z,9.6
2023-01-05T02:56:55.571Z,10.2
2023-01-05T03:01:58.416Z,10.1
2023-01-05T03:07:01.046Z,10
2023-01-05T03:12:03.231Z,10
2023-01-05T03:17:05.469Z,10.1
2023-01-05T03:22:07.583Z,15.4
2023-01-05T03:27:08.158Z,10.1
2023-01-05T03:32:10.348Z,10.3
2023-01-05T03:37:12.470Z,10.5
2023-01-05T03:42:14.751Z,11.2
2023-01-05T03:47:16.804Z,11
2023-01-05T03:52:19.072Z,10.7
2023-01-05T03:57:21.199Z,11.1
2023-01-05T04:02:23.555Z,11.3
2023-01-05T04:07:26.586Z,11.2
2023-01-05T04:12:28.703Z,11.3
2023-01-05T04:17:30.785Z,10.8
2023-01-05T04:22:32.777Z,11.5
2023-01-05T04:27:34.870Z,11.5
2023-01-05T04:32:36.998Z,11
2023-01-05T04:37:39.045Z,10.6
2023-01-05T04:42:41.187Z,11.3
2023-01-05T04:47:44.736Z,11.3
2023-01-05T04:52:47.002Z,10.7
2023-01-05T04:57:49.074Z,10.9
2023-01-05T05:02:51.697Z,11.1
2023-01-05T05:07:54.233Z,11.7
2023-01-05T05:12:56.488Z,11.7
2023-01-05T05:17:58.523Z,11.6
2023-01-05T05:22:59.863Z,11.2
2023-01-05T05:28:02.011Z,11.5
2023-01-05T05:33:04.282Z,11.5
2023-01-05T05:38:06.447Z,12.4
2023-01-05T05:43:08.659Z,11.9
2023-01-05T05:48:11.040Z,11.9
2023-01-05T05:53:13.254Z,12.1
2023-01-05T05:58:15.287Z,12.7
2023-01-05T06:03:17.542Z,13.1
2023-01-05T06:08:19.759Z,12.6
2023-01-05T06:13:22.069Z,11.7
2023-01-05T06:18:24.543Z,12.4
2023-01-05T06:23:26.699Z,12.4
2023-01-05T06:28:29.208Z,12.4
2023-01-05T06:33:31.615Z,13.3
2023-01-05T06:38:33.702Z,12
2023-01-05T06:43:36.232Z,12.1
2023-01-05T06:48:38.412Z,11.9
2023-01-05T06:53:40.500Z,11.9
2023-01-05T06:58:42.648Z,12
2023-01-05T07:03:48.482Z,11.4
2023-01-05T07:08:50.966Z,12.1
2023-01-05T07:13:53.209Z,12
2023-01-05T07:18:55.421Z,11.3
2023-01-05T07:23:57.646Z,11.3
2023-01-05T07:29:00.195Z,11.4
2023-01-05T07:34:03.016Z,10.9
2023-01-05T07:39:05.302Z,10.2
2023-01-05T07:44:07.987Z,10.5
2023-01-05T07:49:10.280Z,11.1
2023-01-05T07:54:12.527Z,9.8
2023-01-05T07:59:14.830Z,9.8
2023-01-05T08:04:20.820Z,10
2023-01-05T08:09:23.234Z,9.7
2023-01-05T08:14:25.685Z,10.5
2023-01-05T08:19:27.869Z,9.8
2023-01-05T08:24:30.269Z,10.1
2023-01-05T08:29:32.569Z,9.5
2023-01-05T08:34:36.141Z,9.5
2023-01-05T08:39:38.289Z,8.7
2023-01-05T08:44:40.340Z,8.7
2023-01-05T08:49:42.584Z,8.7
2023-01-05T08:54:44.643Z,9.1
2023-01-05T08:59:46.798Z,9.1
2023-01-05T09:04:49.449Z,8.8
2023-01-05T09:09:51.981Z,8.8
2023-01-05T09:14:54.197Z,8.4
2023-01-05T09:19:56.343Z,8.9
2023-01-05T09:24:58.435Z,8.6
2023-01-05T09:30:00.598Z,9
2023-01-05T09:35:02.976Z,7.8
2023-01-05T09:40:05.232Z,7.8
2023-01-05T09:45:07.598Z,7.2
2023-01-05T09:50:10.810Z,6.9
2023-01-05T09:55:12.907Z,7
2023-01-05T10:00:15.355Z,7.2
2023-01-05T10:05:17.693Z,6.9
2023-01-05T10:10:30.002Z,7.2
2023-01-05T10:15:23.134Z,7.4
2023-01-05T10:20:25.207Z,7.5
2023-01-05T10:25:28.006Z,7.6
2023-01-05T10:30:30.275Z,7.6
2023-01-05T10:36:02.583Z,7.7
2023-01-05T10:40:36.975Z,7.7
2023-01-05T10:46:30.940Z,7.3
2023-01-05T10:50:47.730Z,7.9
2023-01-05T10:55:50.781Z,8
2023-01-05T11:00:52.834Z,8
2023-01-05T11:05:54.863Z,8
2023-01-05T11:10:56.895Z,7.9
2023-01-05T11:15:58.936Z,11.6
2023-01-05T11:20:59.330Z,8.1
2023-01-05T11:26:01.375Z,7.8
2023-01-05T11:31:03.591Z,7.6
2023-01-05T11:36:06.042Z,8.2
2023-01-05T11:41:08.120Z,8.1
2023-01-05T11:46:10.277Z,7.6
2023-01-05T11:51:12.633Z,10.1
2023-01-05T11:56:15.003Z,6.5
2023-01-05T12:01:17.362Z,6.5
2023-01-05T12:06:19.873Z,6.7
2023-01-05T12:11:22.132Z,7
2023-01-05T12:16:24.380Z,7.3
2023-01-05T12:21:27.157Z,8.7
2023-01-05T12:26:30.187Z,7.9
2023-01-05T12:36:35.553Z,8.5
2023-01-05T12:41:37.878Z,8.2
2023-01-05T12:46:40.015Z,7.8
2023-01-05T12:51:42.328Z,7.4
2023-01-05T12:56:44.678Z,8
2023-01-05T13:01:47.751Z,9.1
2023-01-05T13:06:50.333Z,8.2
2023-01-05T13:11:52.296Z,14.7
2023-01-05T13:16:59.095Z,8.1
2023-01-05T13:22:02.666Z,9.4
2023-01-05T13:27:04.858Z,9.9
2023-01-05T13:32:06.831Z,10.6
2023-01-05T13:37:08.852Z,9.4
2023-01-05T13:42:10.793Z,9.1
2023-01-05T13:47:13.472Z,8.7
2023-01-05T13:52:16.337Z,7
2023-01-05T13:57:18.450Z,5.9
2023-01-05T14:02:20.762Z,5.4
2023-01-05T14:07:25.345Z,5.4
2023-01-05T14:12:32.986Z,5.1
2023-01-05T14:17:35.332Z,5.1
2023-01-05T14:22:37.561Z,5.2
2023-01-05T14:27:39.677Z,4.9
2023-01-05T14:32:41.770Z,5.4
2023-01-05T14:37:43.859Z,5
2023-01-05T14:42:45.968Z,4.5
2023-01-05T14:47:48.002Z,3.8
2023-01-05T14:52:50.889Z,4.1
2023-01-05T14:57:53.373Z,3.7
2023-01-05T15:02:56.909Z,3.4
2023-01-05T15:13:02.189Z,2.4
2023-01-05T15:18:04.318Z,2.8
2023-01-05T15:23:06.488Z,1.9
2023-01-05T15:28:11.110Z,1.8
2023-01-05T15:33:16.595Z,2.9
2023-01-05T15:38:21.448Z,2.6
2023-01-05T15:43:28.263Z,3
2023-01-05T15:48:30.245Z,2.4
2023-01-05T15:53:32.585Z,2.4
2023-01-05T15:58:35.054Z,21.5
2023-01-05T16:03:35.839Z,3
2023-01-05T16:08:39.204Z,2.5
2023-01-05T16:13:41.681Z,2.6
2023-01-05T16:18:43.643Z,4.3
2023-01-05T16:28:49.174Z,3.5
2023-01-05T16:33:51.379Z,2.6
2023-01-05T16:38:53.454Z,3
2023-01-05T16:43:55.759Z,3.3
2023-01-05T16:48:57.783Z,5.2
2023-01-05T16:53:59.954Z,3.9
2023-01-05T16:59:02.075Z,3.1
2023-01-05T17:04:04.252Z,7
2023-01-05T17:09:09.898Z,2.7
2023-01-05T17:14:12.368Z,2.6
2023-01-05T17:19:17.394Z,2.4
2023-01-05T17:24:23.192Z,2.5
2023-01-05T17:29:25.886Z,2.2
2023-01-05T17:34:31.281Z,2.2
2023-01-05T17:39:34.222Z,2.1
2023-01-05T17:44:36.860Z,2.1
2023-01-05T17:49:38.936Z,2.9
2023-01-05T17:54:41.222Z,2.2
2023-01-05T17:59:43.693Z,2.2
2023-01-05T18:04:45.971Z,2
2023-01-05T18:09:49.258Z,2.1
2023-01-05T18:14:51.474Z,1.9
2023-01-05T18:19:53.664Z,2
2023-01-05T18:24:56.135Z,2.1
2023-01-05T18:29:58.977Z,1.9
2023-01-05T18:35:09.708Z,1.8
2023-01-05T18:40:12.998Z,1.6
2023-01-05T18:45:31.837Z,2.7
2023-01-05T18:50:27.755Z,1.6
2023-01-05T18:55:33.138Z,1.2
2023-01-05T19:00:37.837Z,1.5
2023-01-05T19:05:40.156Z,2.1
2023-01-05T19:10:42.765Z,1.7
2023-01-05T19:15:45.094Z,1.6
2023-01-05T19:20:47.561Z,1.6
2023-01-05T19:25:49.913Z,1.5
2023-01-05T19:30:54.877Z,1.4
2023-01-05T19:35:57.541Z,1.5
2023-01-05T19:40:59.749Z,1.5
2023-01-05T19:46:02.123Z,1.6
2023-01-05T19:51:06.505Z,1.9
2023-01-05T19:56:09.089Z,1.8
2023-01-05T20:01:17.321Z,1.6
2023-01-05T20:06:20.435Z,1.5
2023-01-05T20:11:24.245Z,1.6
2023-01-05T20:16:29.380Z,1.7
2023-01-05T20:21:31.765Z,1.6
2023-01-05T20:26:34.058Z,1.9
2023-01-05T20:31:36.483Z,1.7
2023-01-05T20:36:39.104Z,1.8
2023-01-05T20:41:41.267Z,2.1
2023-01-05T20:46:43.523Z,1.8
2023-01-05T20:51:45.881Z,1.6
2023-01-05T20:56:48.050Z,1.8
2023-01-05T21:01:50.483Z,1.6
2023-01-05T21:06:53.447Z,1.7
2023-01-05T21:11:55.973Z,1.8
2023-01-05T21:16:58.131Z,1.8
2023-01-05T21:22:00.449Z,1.8
2023-01-05T21:27:04.933Z,1.7
2023-01-05T21:32:10.143Z,1.9
2023-01-05T21:37:12.308Z,1.8
2023-01-05T21:42:14.373Z,1.9
2023-01-05T21:47:16.502Z,1.7
2023-01-05T21:52:19.555Z,2.2
2023-01-05T21:57:21.626Z,2
2023-01-05T22:02:24.698Z,1.7
2023-01-05T22:07:26.948Z,1.8
2023-01-05T22:12:29.135Z,1.7
2023-01-05T22:17:31.396Z,1.7
2023-01-05T22:22:39.695Z,1.8
2023-01-05T22:27:43.467Z,1.7
2023-01-05T22:37:48.854Z,1.5
2023-01-05T22:42:51.132Z,1.6
2023-01-05T22:47:53.730Z,1.6
2023-01-05T22:52:56.649Z,1.7
2023-01-05T22:58:00.504Z,1.8
2023-01-05T23:03:05.163Z,1.8
2023-01-05T23:08:08.994Z,2
2023-01-05T23:13:12.669Z,1.7
2023-01-05T23:18:15.109Z,1.6
2023-01-05T23:23:17.447Z,1.6
2023-01-05T23:28:19.668Z,1.4
2023-01-05T23:33:21.752Z,1.3
2023-01-05T23:38:27.640Z,1.4
2023-01-05T23:43:35.994Z,1.3
2023-01-05T23:48:38.707Z,1.5
2023-01-05T23:53:41.067Z,1.4
2023-01-05T23:58:43.345Z,1.3
